Saint Helena Island, United Kingdom
Current Conditions -  °F | °C
As of 12:50 PM on Wednesday 26 Nov 2014 (Local Time) from FHAW Reporting Station
Broken Clouds Broken Clouds  
Wind Chill: 79°   Ceiling: 4900
Heat Index: 81°   Visibility: 6mi
Dew Point: 66°   Wind: 18mph
Humidity: 65%   Direction: 140°SE
Pressure: 30"   Gusts: NA
Location:  15.93°S, 5.07°W
Report Text: FHAW 261150Z 14016KT 9999 FEW024 BKN049 26/19 Q1016 BLU TEMPO SCT022WHT
Loading
Personal Weather Stations






























Interactive Weather Map New forecast layout! Learn more

10-Day Weather Forecast

Advertisements
Track Severe Weather on mobile